sensor_id;sensor_type;location;lat;lon;timestamp;P1;durP1;ratioP1;P2;durP2;ratioP2
21697;SDS011;11010;49.548;11.926;2023-03-12T00:01:08;7.43;;;1.83;;
21697;SDS011;11010;49.548;11.926;2023-03-12T00:03:39;7.00;;;2.00;;
21697;SDS011;11010;49.548;11.926;2023-03-12T00:06:07;7.17;;;1.70;;
21697;SDS011;11010;49.548;11.926;2023-03-12T00:08:36;7.37;;;1.70;;
21697;SDS011;11010;49.548;11.926;2023-03-12T00:11:08;7.40;;;1.70;;
21697;SDS011;11010;49.548;11.926;2023-03-12T00:13:37;6.60;;;1.70;;
21697;SDS011;11010;49.548;11.926;2023-03-12T00:16:06;6.17;;;1.70;;
21697;SDS011;11010;49.548;11.926;2023-03-12T00:18:36;6.60;;;1.90;;
21697;SDS011;11010;49.548;11.926;2023-03-12T00:21:03;5.70;;;1.50;;
21697;SDS011;11010;49.548;11.926;2023-03-12T00:23:31;5.60;;;1.50;;
21697;SDS011;11010;49.548;11.926;2023-03-12T00:26:02;5.90;;;1.70;;
21697;SDS011;11010;49.548;11.926;2023-03-12T00:28:32;6.53;;;1.90;;
21697;SDS011;11010;49.548;11.926;2023-03-12T00:31:01;6.43;;;1.63;;
21697;SDS011;11010;49.548;11.926;2023-03-12T00:33:29;6.70;;;1.80;;
21697;SDS011;11010;49.548;11.926;2023-03-12T00:35:58;7.10;;;1.77;;
21697;SDS011;11010;49.548;11.926;2023-03-12T00:38:26;5.77;;;1.63;;
21697;SDS011;11010;49.548;11.926;2023-03-12T00:40:54;7.67;;;1.70;;
21697;SDS011;11010;49.548;11.926;2023-03-12T00:43:21;5.10;;;1.53;;
21697;SDS011;11010;49.548;11.926;2023-03-12T00:45:51;7.47;;;1.80;;
21697;SDS011;11010;49.548;11.926;2023-03-12T00:48:19;7.53;;;1.70;;
21697;SDS011;11010;49.548;11.926;2023-03-12T00:50:46;7.00;;;1.80;;
21697;SDS011;11010;49.548;11.926;2023-03-12T00:53:14;8.00;;;2.10;;
21697;SDS011;11010;49.548;11.926;2023-03-12T00:55:42;6.03;;;1.77;;
21697;SDS011;11010;49.548;11.926;2023-03-12T00:58:09;7.13;;;1.80;;
21697;SDS011;11010;49.548;11.926;2023-03-12T01:00:36;7.83;;;2.00;;
21697;SDS011;11010;49.548;11.926;2023-03-12T01:03:04;6.10;;;1.70;;
21697;SDS011;11010;49.548;11.926;2023-03-12T01:05:31;6.73;;;2.03;;
21697;SDS011;11010;49.548;11.926;2023-03-12T01:08:03;7.67;;;1.97;;
21697;SDS011;11010;49.548;11.926;2023-03-12T01:10:31;8.03;;;1.83;;
21697;SDS011;11010;49.548;11.926;2023-03-12T01:12:58;7.23;;;1.90;;
21697;SDS011;11010;49.548;11.926;2023-03-12T01:15:26;6.20;;;1.83;;
21697;SDS011;11010;49.548;11.926;2023-03-12T01:17:54;6.70;;;1.90;;
21697;SDS011;11010;49.548;11.926;2023-03-12T01:20:21;7.60;;;1.83;;
21697;SDS011;11010;49.548;11.926;2023-03-12T01:22:49;9.63;;;2.40;;
21697;SDS011;11010;49.548;11.926;2023-03-12T01:25:17;6.70;;;2.10;;
21697;SDS011;11010;49.548;11.926;2023-03-12T01:27:44;7.17;;;2.03;;
21697;SDS011;11010;49.548;11.926;2023-03-12T01:30:12;6.57;;;2.00;;
21697;SDS011;11010;49.548;11.926;2023-03-12T01:32:40;7.00;;;2.00;;
21697;SDS011;11010;49.548;11.926;2023-03-12T01:35:07;8.00;;;2.40;;
21697;SDS011;11010;49.548;11.926;2023-03-12T01:37:35;7.73;;;2.20;;
21697;SDS011;11010;49.548;11.926;2023-03-12T01:40:02;8.07;;;2.37;;
21697;SDS011;11010;49.548;11.926;2023-03-12T01:42:30;7.60;;;2.33;;
21697;SDS011;11010;49.548;11.926;2023-03-12T01:44:59;7.90;;;2.10;;
21697;SDS011;11010;49.548;11.926;2023-03-12T01:47:30;7.40;;;2.13;;
21697;SDS011;11010;49.548;11.926;2023-03-12T01:49:59;8.00;;;2.50;;
21697;SDS011;11010;49.548;11.926;2023-03-12T01:52:32;7.23;;;2.20;;
21697;SDS011;11010;49.548;11.926;2023-03-12T02:00:09;7.20;;;2.37;;
21697;SDS011;11010;49.548;11.926;2023-03-12T02:02:53;8.37;;;2.40;;
21697;SDS011;11010;49.548;11.926;2023-03-12T02:05:31;8.00;;;2.33;;
21697;SDS011;11010;49.548;11.926;2023-03-12T02:08:14;6.80;;;2.30;;
21697;SDS011;11010;49.548;11.926;2023-03-12T02:10:43;8.90;;;2.33;;
21697;SDS011;11010;49.548;11.926;2023-03-12T02:13:12;7.20;;;2.30;;
21697;SDS011;11010;49.548;11.926;2023-03-12T02:15:43;7.17;;;2.37;;
21697;SDS011;11010;49.548;11.926;2023-03-12T02:18:12;8.90;;;2.53;;
21697;SDS011;11010;49.548;11.926;2023-03-12T02:26:15;8.37;;;2.63;;
21697;SDS011;11010;49.548;11.926;2023-03-12T02:28:44;8.33;;;2.80;;
21697;SDS011;11010;49.548;11.926;2023-03-12T02:31:13;8.57;;;2.63;;
21697;SDS011;11010;49.548;11.926;2023-03-12T02:33:43;8.77;;;2.80;;
21697;SDS011;11010;49.548;11.926;2023-03-12T02:36:11;9.73;;;3.00;;
21697;SDS011;11010;49.548;11.926;2023-03-12T02:41:21;7.07;;;2.40;;
21697;SDS011;11010;49.548;11.926;2023-03-12T02:44:06;7.23;;;2.23;;
21697;SDS011;11010;49.548;11.926;2023-03-12T02:46:50;8.60;;;2.30;;
21697;SDS011;11010;49.548;11.926;2023-03-12T02:49:23;9.17;;;2.40;;
21697;SDS011;11010;49.548;11.926;2023-03-12T02:52:07;7.97;;;2.70;;
21697;SDS011;11010;49.548;11.926;2023-03-12T02:54:35;9.03;;;2.47;;
21697;SDS011;11010;49.548;11.926;2023-03-12T02:57:02;8.10;;;2.57;;
21697;SDS011;11010;49.548;11.926;2023-03-12T02:59:31;8.13;;;2.60;;
21697;SDS011;11010;49.548;11.926;2023-03-12T03:01:59;7.67;;;2.57;;
21697;SDS011;11010;49.548;11.926;2023-03-12T03:04:27;7.77;;;2.57;;
21697;SDS011;11010;49.548;11.926;2023-03-12T03:06:56;9.50;;;2.73;;
21697;SDS011;11010;49.548;11.926;2023-03-12T03:09:23;8.77;;;2.30;;
21697;SDS011;11010;49.548;11.926;2023-03-12T03:11:51;7.57;;;2.37;;
21697;SDS011;11010;49.548;11.926;2023-03-12T03:14:20;7.37;;;2.43;;
21697;SDS011;11010;49.548;11.926;2023-03-12T03:16:50;7.83;;;2.63;;
21697;SDS011;11010;49.548;11.926;2023-03-12T03:19:20;8.23;;;2.70;;
21697;SDS011;11010;49.548;11.926;2023-03-12T03:21:48;8.13;;;2.50;;
21697;SDS011;11010;49.548;11.926;2023-03-12T03:24:15;8.53;;;2.60;;
21697;SDS011;11010;49.548;11.926;2023-03-12T03:26:43;9.97;;;2.40;;
21697;SDS011;11010;49.548;11.926;2023-03-12T03:29:10;7.90;;;2.57;;
21697;SDS011;11010;49.548;11.926;2023-03-12T03:31:38;8.63;;;2.77;;
21697;SDS011;11010;49.548;11.926;2023-03-12T03:34:05;8.03;;;2.50;;
21697;SDS011;11010;49.548;11.926;2023-03-12T03:36:32;7.80;;;2.40;;
21697;SDS011;11010;49.548;11.926;2023-03-12T03:39:04;8.27;;;2.57;;
21697;SDS011;11010;49.548;11.926;2023-03-12T03:41:32;9.07;;;2.37;;
21697;SDS011;11010;49.548;11.926;2023-03-12T03:44:00;8.73;;;2.43;;
21697;SDS011;11010;49.548;11.926;2023-03-12T03:46:29;8.67;;;2.53;;
21697;SDS011;11010;49.548;11.926;2023-03-12T03:49:01;7.70;;;2.70;;
21697;SDS011;11010;49.548;11.926;2023-03-12T03:51:30;7.33;;;2.47;;
21697;SDS011;11010;49.548;11.926;2023-03-12T03:54:03;7.97;;;2.50;;
21697;SDS011;11010;49.548;11.926;2023-03-12T03:56:30;10.47;;;2.93;;
21697;SDS011;11010;49.548;11.926;2023-03-12T03:59:00;8.07;;;2.47;;
21697;SDS011;11010;49.548;11.926;2023-03-12T04:01:30;8.57;;;2.40;;
21697;SDS011;11010;49.548;11.926;2023-03-12T04:03:59;7.23;;;2.50;;
21697;SDS011;11010;49.548;11.926;2023-03-12T04:06:28;8.97;;;2.43;;
21697;SDS011;11010;49.548;11.926;2023-03-12T04:08:56;7.70;;;2.20;;
21697;SDS011;11010;49.548;11.926;2023-03-12T04:11:27;7.23;;;2.50;;
21697;SDS011;11010;49.548;11.926;2023-03-12T04:13:56;10.20;;;2.73;;
21697;SDS011;11010;49.548;11.926;2023-03-12T04:16:27;9.77;;;2.60;;
21697;SDS011;11010;49.548;11.926;2023-03-12T04:18:55;8.07;;;2.43;;
21697;SDS011;11010;49.548;11.926;2023-03-12T04:21:24;8.27;;;2.60;;
21697;SDS011;11010;49.548;11.926;2023-03-12T04:23:51;8.97;;;2.70;;
21697;SDS011;11010;49.548;11.926;2023-03-12T04:26:23;7.73;;;2.47;;
21697;SDS011;11010;49.548;11.926;2023-03-12T04:28:52;7.80;;;2.40;;
21697;SDS011;11010;49.548;11.926;2023-03-12T04:31:19;9.63;;;2.77;;
21697;SDS011;11010;49.548;11.926;2023-03-12T04:33:49;8.67;;;2.50;;
21697;SDS011;11010;49.548;11.926;2023-03-12T04:36:18;7.20;;;2.43;;
21697;SDS011;11010;49.548;11.926;2023-03-12T04:38:47;8.60;;;2.80;;
21697;SDS011;11010;49.548;11.926;2023-03-12T04:41:18;7.80;;;2.50;;
21697;SDS011;11010;49.548;11.926;2023-03-12T04:43:51;8.90;;;2.50;;
21697;SDS011;11010;49.548;11.926;2023-03-12T04:46:19;8.37;;;2.50;;
21697;SDS011;11010;49.548;11.926;2023-03-12T04:48:47;7.97;;;2.57;;
21697;SDS011;11010;49.548;11.926;2023-03-12T04:51:15;8.23;;;2.60;;
21697;SDS011;11010;49.548;11.926;2023-03-12T05:03:41;8.90;;;2.50;;
21697;SDS011;11010;49.548;11.926;2023-03-12T05:06:08;8.50;;;2.53;;
21697;SDS011;11010;49.548;11.926;2023-03-12T05:08:35;17.30;;;6.00;;
21697;SDS011;11010;49.548;11.926;2023-03-12T05:11:02;11.80;;;3.20;;
21697;SDS011;11010;49.548;11.926;2023-03-12T05:13:30;9.20;;;3.17;;
21697;SDS011;11010;49.548;11.926;2023-03-12T05:15:57;12.03;;;5.30;;
21697;SDS011;11010;49.548;11.926;2023-03-12T05:18:25;12.03;;;3.60;;
21697;SDS011;11010;49.548;11.926;2023-03-12T05:21:00;8.83;;;3.07;;
21697;SDS011;11010;49.548;11.926;2023-03-12T05:23:31;8.80;;;3.00;;
21697;SDS011;11010;49.548;11.926;2023-03-12T05:25:59;8.20;;;2.67;;
21697;SDS011;11010;49.548;11.926;2023-03-12T05:28:27;7.87;;;2.57;;
21697;SDS011;11010;49.548;11.926;2023-03-12T05:30:59;9.50;;;3.00;;
21697;SDS011;11010;49.548;11.926;2023-03-12T05:33:28;7.97;;;2.57;;
21697;SDS011;11010;49.548;11.926;2023-03-12T05:35:58;9.37;;;2.77;;
21697;SDS011;11010;49.548;11.926;2023-03-12T05:38:25;7.50;;;2.53;;
21697;SDS011;11010;49.548;11.926;2023-03-12T05:40:53;9.47;;;2.90;;
21697;SDS011;11010;49.548;11.926;2023-03-12T05:43:23;9.37;;;2.80;;
21697;SDS011;11010;49.548;11.926;2023-03-12T05:45:52;9.77;;;3.00;;
21697;SDS011;11010;49.548;11.926;2023-03-12T05:48:19;9.27;;;2.57;;
21697;SDS011;11010;49.548;11.926;2023-03-12T05:50:48;8.60;;;2.90;;
21697;SDS011;11010;49.548;11.926;2023-03-12T05:53:15;9.43;;;2.53;;
21697;SDS011;11010;49.548;11.926;2023-03-12T05:55:45;8.40;;;2.67;;
21697;SDS011;11010;49.548;11.926;2023-03-12T05:58:12;9.60;;;3.00;;
21697;SDS011;11010;49.548;11.926;2023-03-12T06:00:40;9.30;;;2.50;;
21697;SDS011;11010;49.548;11.926;2023-03-12T06:03:10;9.37;;;2.70;;
21697;SDS011;11010;49.548;11.926;2023-03-12T06:05:39;8.40;;;2.77;;
21697;SDS011;11010;49.548;11.926;2023-03-12T06:08:07;9.37;;;2.90;;
21697;SDS011;11010;49.548;11.926;2023-03-12T06:10:36;9.30;;;2.63;;
21697;SDS011;11010;49.548;11.926;2023-03-12T06:13:05;8.97;;;2.40;;
21697;SDS011;11010;49.548;11.926;2023-03-12T06:15:32;9.17;;;2.50;;
21697;SDS011;11010;49.548;11.926;2023-03-12T06:18:01;9.37;;;3.07;;
21697;SDS011;11010;49.548;11.926;2023-03-12T06:20:29;8.37;;;2.70;;
21697;SDS011;11010;49.548;11.926;2023-03-12T06:22:57;8.43;;;3.17;;
21697;SDS011;11010;49.548;11.926;2023-03-12T06:25:24;9.20;;;2.67;;
21697;SDS011;11010;49.548;11.926;2023-03-12T06:27:51;9.90;;;3.37;;
21697;SDS011;11010;49.548;11.926;2023-03-12T06:30:18;11.80;;;3.37;;
21697;SDS011;11010;49.548;11.926;2023-03-12T06:32:46;9.77;;;3.27;;
21697;SDS011;11010;49.548;11.926;2023-03-12T06:35:13;9.13;;;3.10;;
21697;SDS011;11010;49.548;11.926;2023-03-12T06:37:40;11.13;;;3.10;;
21697;SDS011;11010;49.548;11.926;2023-03-12T06:40:07;8.50;;;3.17;;
21697;SDS011;11010;49.548;11.926;2023-03-12T06:42:36;9.33;;;3.17;;
21697;SDS011;11010;49.548;11.926;2023-03-12T06:45:04;9.77;;;3.20;;
21697;SDS011;11010;49.548;11.926;2023-03-12T06:47:31;9.60;;;3.03;;
21697;SDS011;11010;49.548;11.926;2023-03-12T06:49:58;9.00;;;3.60;;
21697;SDS011;11010;49.548;11.926;2023-03-12T06:52:25;9.03;;;3.47;;
21697;SDS011;11010;49.548;11.926;2023-03-12T06:54:53;9.93;;;2.97;;
21697;SDS011;11010;49.548;11.926;2023-03-12T06:57:20;10.63;;;4.00;;
21697;SDS011;11010;49.548;11.926;2023-03-12T06:59:47;11.10;;;4.10;;
21697;SDS011;11010;49.548;11.926;2023-03-12T07:02:16;10.17;;;3.20;;
21697;SDS011;11010;49.548;11.926;2023-03-12T07:04:43;9.53;;;3.33;;
21697;SDS011;11010;49.548;11.926;2023-03-12T07:07:10;9.93;;;3.00;;
21697;SDS011;11010;49.548;11.926;2023-03-12T07:09:37;10.00;;;3.23;;
21697;SDS011;11010;49.548;11.926;2023-03-12T07:12:05;8.50;;;3.10;;
21697;SDS011;11010;49.548;11.926;2023-03-12T07:14:32;9.90;;;3.47;;
21697;SDS011;11010;49.548;11.926;2023-03-12T07:16:59;11.53;;;3.70;;
21697;SDS011;11010;49.548;11.926;2023-03-12T07:19:27;8.93;;;3.13;;
21697;SDS011;11010;49.548;11.926;2023-03-12T07:21:57;8.87;;;3.07;;
21697;SDS011;11010;49.548;11.926;2023-03-12T07:24:25;8.60;;;3.03;;
21697;SDS011;11010;49.548;11.926;2023-03-12T07:26:52;10.00;;;3.33;;
21697;SDS011;11010;49.548;11.926;2023-03-12T07:29:19;8.80;;;3.17;;
21697;SDS011;11010;49.548;11.926;2023-03-12T07:31:46;9.53;;;3.33;;
21697;SDS011;11010;49.548;11.926;2023-03-12T07:34:13;8.63;;;2.83;;
21697;SDS011;11010;49.548;11.926;2023-03-12T07:36:41;9.43;;;3.10;;
21697;SDS011;11010;49.548;11.926;2023-03-12T07:39:08;9.20;;;3.20;;
21697;SDS011;11010;49.548;11.926;2023-03-12T07:41:35;9.73;;;3.30;;
21697;SDS011;11010;49.548;11.926;2023-03-12T07:44:04;9.10;;;3.40;;
21697;SDS011;11010;49.548;11.926;2023-03-12T07:46:31;11.47;;;4.13;;
21697;SDS011;11010;49.548;11.926;2023-03-12T07:48:59;9.53;;;3.63;;
21697;SDS011;11010;49.548;11.926;2023-03-12T07:51:26;10.33;;;3.70;;
21697;SDS011;11010;49.548;11.926;2023-03-12T07:53:54;12.13;;;3.80;;
21697;SDS011;11010;49.548;11.926;2023-03-12T07:56:21;9.53;;;3.33;;
21697;SDS011;11010;49.548;11.926;2023-03-12T07:58:48;10.80;;;3.90;;
21697;SDS011;11010;49.548;11.926;2023-03-12T08:01:16;10.37;;;3.63;;
21697;SDS011;11010;49.548;11.926;2023-03-12T08:03:43;9.90;;;3.17;;
21697;SDS011;11010;49.548;11.926;2023-03-12T08:06:10;11.00;;;3.60;;
21697;SDS011;11010;49.548;11.926;2023-03-12T08:08:38;9.53;;;3.67;;
21697;SDS011;11010;49.548;11.926;2023-03-12T08:11:07;11.30;;;3.50;;
21697;SDS011;11010;49.548;11.926;2023-03-12T08:13:35;10.47;;;3.60;;
21697;SDS011;11010;49.548;11.926;2023-03-12T08:16:02;8.83;;;3.60;;
21697;SDS011;11010;49.548;11.926;2023-03-12T08:18:29;10.43;;;3.27;;
21697;SDS011;11010;49.548;11.926;2023-03-12T08:20:56;10.67;;;3.50;;
21697;SDS011;11010;49.548;11.926;2023-03-12T08:23:24;10.47;;;3.67;;
21697;SDS011;11010;49.548;11.926;2023-03-12T08:25:52;9.97;;;3.23;;
21697;SDS011;11010;49.548;11.926;2023-03-12T08:28:20;10.60;;;3.30;;
21697;SDS011;11010;49.548;11.926;2023-03-12T08:30:50;8.80;;;3.17;;
21697;SDS011;11010;49.548;11.926;2023-03-12T08:33:20;9.03;;;2.90;;
21697;SDS011;11010;49.548;11.926;2023-03-12T08:35:48;8.30;;;2.60;;
21697;SDS011;11010;49.548;11.926;2023-03-12T08:38:15;8.97;;;2.60;;
21697;SDS011;11010;49.548;11.926;2023-03-12T08:40:42;9.33;;;2.87;;
21697;SDS011;11010;49.548;11.926;2023-03-12T08:43:10;8.13;;;2.77;;
21697;SDS011;11010;49.548;11.926;2023-03-12T08:45:37;9.60;;;2.73;;
21697;SDS011;11010;49.548;11.926;2023-03-12T08:48:05;8.10;;;2.73;;
21697;SDS011;11010;49.548;11.926;2023-03-12T08:50:32;8.00;;;2.80;;
21697;SDS011;11010;49.548;11.926;2023-03-12T08:52:59;9.70;;;2.73;;
21697;SDS011;11010;49.548;11.926;2023-03-12T08:55:27;8.43;;;2.70;;
21697;SDS011;11010;49.548;11.926;2023-03-12T08:57:54;9.03;;;2.53;;
21697;SDS011;11010;49.548;11.926;2023-03-12T09:00:22;8.63;;;2.57;;
21697;SDS011;11010;49.548;11.926;2023-03-12T09:02:49;9.43;;;2.97;;
21697;SDS011;11010;49.548;11.926;2023-03-12T09:05:17;9.77;;;2.47;;
21697;SDS011;11010;49.548;11.926;2023-03-12T09:07:46;8.50;;;2.73;;
21697;SDS011;11010;49.548;11.926;2023-03-12T09:10:13;10.93;;;3.07;;
21697;SDS011;11010;49.548;11.926;2023-03-12T09:12:40;9.77;;;3.10;;
21697;SDS011;11010;49.548;11.926;2023-03-12T09:15:07;8.93;;;2.67;;
21697;SDS011;11010;49.548;11.926;2023-03-12T09:17:35;9.53;;;2.73;;
21697;SDS011;11010;49.548;11.926;2023-03-12T09:20:03;9.27;;;2.70;;
21697;SDS011;11010;49.548;11.926;2023-03-12T09:22:34;10.43;;;3.30;;
21697;SDS011;11010;49.548;11.926;2023-03-12T09:25:03;10.17;;;2.97;;
21697;SDS011;11010;49.548;11.926;2023-03-12T09:27:34;8.83;;;2.83;;
21697;SDS011;11010;49.548;11.926;2023-03-12T09:30:05;10.13;;;3.00;;
21697;SDS011;11010;49.548;11.926;2023-03-12T09:32:34;9.70;;;2.83;;
21697;SDS011;11010;49.548;11.926;2023-03-12T09:35:01;10.40;;;3.03;;
21697;SDS011;11010;49.548;11.926;2023-03-12T09:37:28;9.47;;;2.97;;
21697;SDS011;11010;49.548;11.926;2023-03-12T09:39:57;11.43;;;3.17;;
21697;SDS011;11010;49.548;11.926;2023-03-12T09:45:10;7.93;;;2.80;;
21697;SDS011;11010;49.548;11.926;2023-03-12T09:47:45;9.33;;;3.03;;
21697;SDS011;11010;49.548;11.926;2023-03-12T09:50:37;9.23;;;3.00;;
21697;SDS011;11010;49.548;11.926;2023-03-12T09:53:29;9.80;;;3.00;;
21697;SDS011;11010;49.548;11.926;2023-03-12T09:56:09;10.47;;;3.03;;
21697;SDS011;11010;49.548;11.926;2023-03-12T09:58:39;9.97;;;2.70;;
21697;SDS011;11010;49.548;11.926;2023-03-12T10:23:43;8.50;;;2.80;;
21697;SDS011;11010;49.548;11.926;2023-03-12T10:26:29;9.50;;;2.50;;
21697;SDS011;11010;49.548;11.926;2023-03-12T10:29:04;9.40;;;2.77;;
21697;SDS011;11010;49.548;11.926;2023-03-12T10:31:48;8.23;;;2.87;;
21697;SDS011;11010;49.548;11.926;2023-03-12T10:34:33;7.57;;;2.53;;
21697;SDS011;11010;49.548;11.926;2023-03-12T10:39:46;7.93;;;2.50;;
21697;SDS011;11010;49.548;11.926;2023-03-12T10:42:18;7.07;;;2.20;;
21697;SDS011;11010;49.548;11.926;2023-03-12T10:45:33;7.33;;;2.33;;
21697;SDS011;11010;49.548;11.926;2023-03-12T10:47:35;7.40;;;2.30;;
21697;SDS011;11010;49.548;11.926;2023-03-12T10:50:16;7.90;;;2.33;;
21697;SDS011;11010;49.548;11.926;2023-03-12T10:52:47;9.13;;;2.63;;
21697;SDS011;11010;49.548;11.926;2023-03-12T10:57:49;7.97;;;1.77;;
21697;SDS011;11010;49.548;11.926;2023-03-12T11:00:18;7.13;;;1.83;;
21697;SDS011;11010;49.548;11.926;2023-03-12T11:02:58;5.50;;;1.37;;
21697;SDS011;11010;49.548;11.926;2023-03-12T11:05:33;5.23;;;1.30;;
21697;SDS011;11010;49.548;11.926;2023-03-12T11:08:02;6.57;;;1.60;;
21697;SDS011;11010;49.548;11.926;2023-03-12T11:10:44;5.10;;;1.30;;
21697;SDS011;11010;49.548;11.926;2023-03-12T11:13:26;6.00;;;1.63;;
21697;SDS011;11010;49.548;11.926;2023-03-12T11:15:59;6.73;;;1.70;;
21697;SDS011;11010;49.548;11.926;2023-03-12T11:21:22;4.67;;;1.20;;
21697;SDS011;11010;49.548;11.926;2023-03-12T11:26:36;5.23;;;1.30;;
21697;SDS011;11010;49.548;11.926;2023-03-12T11:31:59;5.80;;;1.40;;
21697;SDS011;11010;49.548;11.926;2023-03-12T11:34:29;6.73;;;1.67;;
21697;SDS011;11010;49.548;11.926;2023-03-12T11:37:34;8.07;;;1.77;;
21697;SDS011;11010;49.548;11.926;2023-03-12T11:45:30;6.53;;;1.40;;
21697;SDS011;11010;49.548;11.926;2023-03-12T11:51:05;4.83;;;1.10;;
21697;SDS011;11010;49.548;11.926;2023-03-12T12:01:52;7.63;;;2.23;;
21697;SDS011;11010;49.548;11.926;2023-03-12T12:21:13;7.70;;;2.43;;
21697;SDS011;11010;49.548;11.926;2023-03-12T12:29:15;8.27;;;2.50;;
21697;SDS011;11010;49.548;11.926;2023-03-12T12:32:03;8.67;;;2.80;;
21697;SDS011;11010;49.548;11.926;2023-03-12T12:37:19;8.57;;;2.70;;
21697;SDS011;11010;49.548;11.926;2023-03-12T12:40:11;10.23;;;3.00;;
21697;SDS011;11010;49.548;11.926;2023-03-12T12:43:33;9.50;;;2.70;;
21697;SDS011;11010;49.548;11.926;2023-03-12T12:45:54;12.40;;;2.83;;
21697;SDS011;11010;49.548;11.926;2023-03-12T12:48:27;8.90;;;2.33;;
21697;SDS011;11010;49.548;11.926;2023-03-12T12:50:59;9.27;;;2.80;;
21697;SDS011;11010;49.548;11.926;2023-03-12T12:54:15;10.47;;;3.23;;
21697;SDS011;11010;49.548;11.926;2023-03-12T12:56:39;10.97;;;3.10;;
21697;SDS011;11010;49.548;11.926;2023-03-12T13:01:59;10.03;;;3.10;;
21697;SDS011;11010;49.548;11.926;2023-03-12T13:04:32;9.50;;;3.30;;
21697;SDS011;11010;49.548;11.926;2023-03-12T13:07:03;8.50;;;2.60;;
21697;SDS011;11010;49.548;11.926;2023-03-12T13:09:53;11.63;;;3.27;;
21697;SDS011;11010;49.548;11.926;2023-03-12T13:14:52;8.20;;;2.27;;
21697;SDS011;11010;49.548;11.926;2023-03-12T13:17:34;11.30;;;3.20;;
21697;SDS011;11010;49.548;11.926;2023-03-12T13:20:45;8.70;;;3.20;;
21697;SDS011;11010;49.548;11.926;2023-03-12T13:31:37;11.43;;;3.63;;
21697;SDS011;11010;49.548;11.926;2023-03-12T13:36:32;9.43;;;2.90;;
21697;SDS011;11010;49.548;11.926;2023-03-12T13:41:37;9.83;;;2.93;;
21697;SDS011;11010;49.548;11.926;2023-03-12T13:52:19;11.20;;;3.57;;
21697;SDS011;11010;49.548;11.926;2023-03-12T14:00:16;11.57;;;3.27;;
21697;SDS011;11010;49.548;11.926;2023-03-12T14:03:46;10.97;;;3.87;;
21697;SDS011;11010;49.548;11.926;2023-03-12T14:16:47;9.37;;;3.60;;
21697;SDS011;11010;49.548;11.926;2023-03-12T14:19:18;10.70;;;3.70;;
21697;SDS011;11010;49.548;11.926;2023-03-12T14:21:50;8.77;;;3.17;;
21697;SDS011;11010;49.548;11.926;2023-03-12T14:26:54;10.20;;;3.10;;
21697;SDS011;11010;49.548;11.926;2023-03-12T14:29:42;9.27;;;3.27;;
21697;SDS011;11010;49.548;11.926;2023-03-12T14:32:18;9.50;;;3.73;;
21697;SDS011;11010;49.548;11.926;2023-03-12T14:34:56;8.53;;;3.33;;
21697;SDS011;11010;49.548;11.926;2023-03-12T14:37:45;11.60;;;3.97;;
21697;SDS011;11010;49.548;11.926;2023-03-12T14:40:27;9.97;;;3.43;;
21697;SDS011;11010;49.548;11.926;2023-03-12T14:43:19;10.23;;;3.90;;
21697;SDS011;11010;49.548;11.926;2023-03-12T14:45:50;9.83;;;3.80;;
21697;SDS011;11010;49.548;11.926;2023-03-12T14:48:34;11.50;;;4.10;;
21697;SDS011;11010;49.548;11.926;2023-03-12T14:51:03;5.73;;;2.13;;
21697;SDS011;11010;49.548;11.926;2023-03-12T14:53:36;11.37;;;4.30;;
21697;SDS011;11010;49.548;11.926;2023-03-12T14:58:42;10.40;;;3.93;;
21697;SDS011;11010;49.548;11.926;2023-03-12T15:01:16;6.37;;;2.17;;
21697;SDS011;11010;49.548;11.926;2023-03-12T15:03:50;5.60;;;1.50;;
21697;SDS011;11010;49.548;11.926;2023-03-12T15:06:30;6.50;;;2.67;;
21697;SDS011;11010;49.548;11.926;2023-03-12T15:09:03;10.10;;;3.70;;
21697;SDS011;11010;49.548;11.926;2023-03-12T15:11:33;14.70;;;4.03;;
21697;SDS011;11010;49.548;11.926;2023-03-12T15:14:03;10.20;;;4.00;;
21697;SDS011;11010;49.548;11.926;2023-03-12T15:16:34;10.80;;;3.97;;
21697;SDS011;11010;49.548;11.926;2023-03-12T15:19:02;6.80;;;2.60;;
21697;SDS011;11010;49.548;11.926;2023-03-12T15:21:33;10.77;;;3.90;;
21697;SDS011;11010;49.548;11.926;2023-03-12T15:24:01;7.03;;;2.63;;
21697;SDS011;11010;49.548;11.926;2023-03-12T15:26:30;9.77;;;4.03;;
21697;SDS011;11010;49.548;11.926;2023-03-12T15:29:01;11.30;;;3.83;;
21697;SDS011;11010;49.548;11.926;2023-03-12T15:31:53;8.43;;;2.90;;
21697;SDS011;11010;49.548;11.926;2023-03-12T15:34:32;9.60;;;3.23;;
21697;SDS011;11010;49.548;11.926;2023-03-12T15:39:59;9.77;;;3.23;;
21697;SDS011;11010;49.548;11.926;2023-03-12T15:42:35;9.53;;;3.67;;
21697;SDS011;11010;49.548;11.926;2023-03-12T15:45:14;10.70;;;4.03;;
21697;SDS011;11010;49.548;11.926;2023-03-12T15:48:02;10.33;;;4.27;;
21697;SDS011;11010;49.548;11.926;2023-03-12T15:50:42;9.20;;;3.57;;
21697;SDS011;11010;49.548;11.926;2023-03-12T15:55:38;11.03;;;4.40;;
21697;SDS011;11010;49.548;11.926;2023-03-12T15:58:26;9.40;;;4.03;;
21697;SDS011;11010;49.548;11.926;2023-03-12T16:01:07;9.53;;;3.57;;
21697;SDS011;11010;49.548;11.926;2023-03-12T16:03:37;10.43;;;4.20;;
21697;SDS011;11010;49.548;11.926;2023-03-12T16:06:09;13.27;;;6.50;;
21697;SDS011;11010;49.548;11.926;2023-03-12T16:08:40;16.33;;;6.63;;
21697;SDS011;11010;49.548;11.926;2023-03-12T16:11:16;10.67;;;4.73;;
21697;SDS011;11010;49.548;11.926;2023-03-12T16:13:46;10.60;;;4.47;;
21697;SDS011;11010;49.548;11.926;2023-03-12T16:16:15;10.47;;;4.20;;
21697;SDS011;11010;49.548;11.926;2023-03-12T16:18:43;10.27;;;4.20;;
21697;SDS011;11010;49.548;11.926;2023-03-12T16:21:10;9.53;;;4.07;;
21697;SDS011;11010;49.548;11.926;2023-03-12T16:23:37;13.00;;;5.50;;
21697;SDS011;11010;49.548;11.926;2023-03-12T16:26:05;11.07;;;4.03;;
21697;SDS011;11010;49.548;11.926;2023-03-12T16:28:33;10.93;;;4.27;;
21697;SDS011;11010;49.548;11.926;2023-03-12T16:31:01;13.03;;;4.70;;
21697;SDS011;11010;49.548;11.926;2023-03-12T16:33:28;12.37;;;5.43;;
21697;SDS011;11010;49.548;11.926;2023-03-12T16:35:55;15.60;;;5.63;;
21697;SDS011;11010;49.548;11.926;2023-03-12T16:38:23;10.37;;;4.80;;
21697;SDS011;11010;49.548;11.926;2023-03-12T16:40:50;10.57;;;4.27;;
21697;SDS011;11010;49.548;11.926;2023-03-12T16:43:22;12.60;;;4.40;;
21697;SDS011;11010;49.548;11.926;2023-03-12T16:45:51;10.77;;;4.53;;
21697;SDS011;11010;49.548;11.926;2023-03-12T16:48:20;10.80;;;4.20;;
21697;SDS011;11010;49.548;11.926;2023-03-12T16:50:51;11.40;;;4.93;;
21697;SDS011;11010;49.548;11.926;2023-03-12T16:53:22;9.97;;;4.00;;
21697;SDS011;11010;49.548;11.926;2023-03-12T16:55:51;9.87;;;3.80;;
21697;SDS011;11010;49.548;11.926;2023-03-12T16:58:24;9.50;;;3.33;;
21697;SDS011;11010;49.548;11.926;2023-03-12T17:00:53;10.13;;;3.80;;
21697;SDS011;11010;49.548;11.926;2023-03-12T17:05:54;10.20;;;3.90;;
21697;SDS011;11010;49.548;11.926;2023-03-12T17:08:21;11.23;;;3.50;;
21697;SDS011;11010;49.548;11.926;2023-03-12T17:10:49;9.63;;;3.47;;
21697;SDS011;11010;49.548;11.926;2023-03-12T17:13:17;9.43;;;3.70;;
21697;SDS011;11010;49.548;11.926;2023-03-12T17:15:46;9.27;;;3.50;;
21697;SDS011;11010;49.548;11.926;2023-03-12T17:18:15;10.80;;;3.67;;
21697;SDS011;11010;49.548;11.926;2023-03-12T17:20:43;10.70;;;3.47;;
21697;SDS011;11010;49.548;11.926;2023-03-12T17:23:11;10.03;;;2.97;;
21697;SDS011;11010;49.548;11.926;2023-03-12T17:25:39;8.87;;;2.93;;
21697;SDS011;11010;49.548;11.926;2023-03-12T17:28:08;10.07;;;3.30;;
21697;SDS011;11010;49.548;11.926;2023-03-12T17:30:36;9.37;;;3.47;;
21697;SDS011;11010;49.548;11.926;2023-03-12T17:33:05;9.60;;;3.57;;